createdAt,value
2022-09-18T00:02:05.159Z,24.90
2022-09-18T00:04:35.019Z,24.90
2022-09-18T00:07:04.705Z,24.90
2022-09-18T00:09:34.343Z,24.90
2022-09-18T00:12:04.158Z,24.90
2022-09-18T00:14:33.948Z,24.90
2022-09-18T00:17:08.899Z,24.90
2022-09-18T00:19:38.869Z,24.90
2022-09-18T00:22:08.501Z,25.00
2022-09-18T00:24:38.250Z,25.00
2022-09-18T00:27:08.170Z,25.00
2022-09-18T00:29:37.762Z,25.00
2022-09-18T00:32:07.417Z,25.00
2022-09-18T00:34:37.142Z,25.10
2022-09-18T00:37:07.349Z,25.10
2022-09-18T00:39:37.441Z,25.10
2022-09-18T00:42:07.901Z,25.10
2022-09-18T00:44:44.030Z,25.10
2022-09-18T00:47:37.412Z,25.10
2022-09-18T00:50:16.441Z,25.20
2022-09-18T00:52:58.570Z,25.20
2022-09-18T00:55:39.891Z,25.20
2022-09-18T00:58:10.439Z,25.20
2022-09-18T01:00:41.156Z,25.30
2022-09-18T01:03:11.233Z,25.20
2022-09-18T01:06:17.472Z,25.30
2022-09-18T01:09:28.821Z,25.30
2022-09-18T01:12:17.368Z,25.30
2022-09-18T01:15:15.204Z,25.30
2022-09-18T01:18:07.327Z,25.30
2022-09-18T01:21:16.276Z,25.40
2022-09-18T01:24:17.473Z,25.40
2022-09-18T01:26:59.097Z,25.50
2022-09-18T01:29:59.599Z,25.50
2022-09-18T01:32:36.650Z,25.50
2022-09-18T01:35:40.972Z,25.50
2022-09-18T01:38:32.409Z,25.50
2022-09-18T01:41:14.091Z,25.50
2022-09-18T01:43:45.129Z,25.50
2022-09-18T01:46:18.526Z,25.50
2022-09-18T01:49:17.356Z,25.50
2022-09-18T01:52:07.015Z,25.50
2022-09-18T01:54:46.243Z,25.60
2022-09-18T01:57:24.151Z,25.60
2022-09-18T02:00:02.920Z,25.60
2022-09-18T02:02:44.494Z,25.70
2022-09-18T02:05:20.600Z,25.70
2022-09-18T02:08:12.694Z,25.70
2022-09-18T02:11:02.541Z,25.70
2022-09-18T02:13:38.882Z,25.80
2022-09-18T02:16:16.421Z,25.80
2022-09-18T02:18:52.540Z,25.80
2022-09-18T02:21:30.711Z,25.80
2022-09-18T02:24:10.701Z,25.80
2022-09-18T02:26:43.122Z,25.80
2022-09-18T02:29:17.590Z,25.80
2022-09-18T02:31:48.178Z,25.80
2022-09-18T02:34:19.709Z,25.90
2022-09-18T02:37:26.435Z,25.90
2022-09-18T02:40:23.721Z,26.00
2022-09-18T02:43:32.508Z,26.00
2022-09-18T02:46:38.108Z,26.10
2022-09-18T02:49:17.170Z,26.20
2022-09-18T02:52:00.178Z,26.30
2022-09-18T02:54:54.642Z,26.40
2022-09-18T02:57:38.443Z,26.50
2022-09-18T03:00:13.711Z,26.60
2022-09-18T03:02:45.689Z,26.60
2022-09-18T03:05:17.011Z,26.70
2022-09-18T03:07:46.693Z,26.70
2022-09-18T03:10:16.380Z,26.70
2022-09-18T03:12:45.961Z,26.70
2022-09-18T03:15:15.742Z,26.70
2022-09-18T03:17:45.321Z,26.70
2022-09-18T03:20:15.452Z,26.70
2022-09-18T03:22:45.615Z,26.70
2022-09-18T03:25:17.001Z,26.80
2022-09-18T03:27:48.433Z,26.90
2022-09-18T03:30:18.499Z,26.90
2022-09-18T03:32:49.389Z,27.00
2022-09-18T03:35:22.200Z,27.00
2022-09-18T03:37:52.295Z,27.10
2022-09-18T03:40:22.918Z,27.10
2022-09-18T03:42:53.082Z,27.20
2022-09-18T03:45:23.153Z,27.20
2022-09-18T03:47:53.147Z,27.30
2022-09-18T03:50:28.080Z,27.30
2022-09-18T03:52:59.032Z,27.30
2022-09-18T03:55:29.209Z,27.30
2022-09-18T03:57:59.189Z,27.30
2022-09-18T04:00:31.500Z,27.30
2022-09-18T04:03:01.264Z,27.30
2022-09-18T04:05:31.083Z,27.20
2022-09-18T04:08:00.979Z,27.20
2022-09-18T04:10:30.883Z,27.20
2022-09-18T04:13:04.772Z,27.10
2022-09-18T04:15:36.040Z,27.10
2022-09-18T04:18:05.920Z,27.10
2022-09-18T04:20:37.021Z,27.00
2022-09-18T04:23:08.420Z,26.90
2022-09-18T04:25:40.890Z,26.90
2022-09-18T04:28:10.644Z,26.90
2022-09-18T04:30:40.774Z,26.90
2022-09-18T04:33:15.273Z,26.90
2022-09-18T04:35:45.790Z,26.80
2022-09-18T04:38:16.499Z,26.80
2022-09-18T04:40:46.100Z,26.80
2022-09-18T04:43:15.803Z,26.90
2022-09-18T04:45:47.562Z,26.90
2022-09-18T04:48:20.572Z,26.90
2022-09-18T04:50:52.752Z,26.90
2022-09-18T04:53:22.902Z,26.90
2022-09-18T04:55:52.702Z,26.90
2022-09-18T04:58:22.842Z,26.90
2022-09-18T05:00:53.183Z,26.90
2022-09-18T05:03:24.310Z,26.90
2022-09-18T05:05:56.342Z,26.90
2022-09-18T05:08:27.132Z,26.90
2022-09-18T05:10:58.595Z,26.90
2022-09-18T05:13:28.893Z,26.90
2022-09-18T05:15:59.702Z,26.90
2022-09-18T05:18:29.460Z,27.00
2022-09-18T05:21:04.090Z,27.00
2022-09-18T05:23:36.692Z,27.00
2022-09-18T05:26:06.578Z,27.10
2022-09-18T05:28:37.668Z,27.10
2022-09-18T05:31:07.717Z,27.10
2022-09-18T05:33:38.259Z,27.10
2022-09-18T05:36:09.372Z,27.10
2022-09-18T05:38:40.454Z,27.10
2022-09-18T05:41:11.111Z,27.10
2022-09-18T05:43:40.858Z,27.20
2022-09-18T05:46:10.637Z,27.20
2022-09-18T05:48:41.099Z,27.20
2022-09-18T05:51:13.852Z,27.20
2022-09-18T05:53:53.093Z,27.20
2022-09-18T05:56:23.308Z,27.30
2022-09-18T05:58:53.448Z,27.30
2022-09-18T06:01:23.584Z,27.40
2022-09-18T06:03:53.959Z,27.40
2022-09-18T06:06:24.490Z,27.40
2022-09-18T06:08:57.468Z,27.40
2022-09-18T06:11:27.909Z,27.50
2022-09-18T06:13:58.310Z,27.60
2022-09-18T06:16:28.437Z,27.60
2022-09-18T06:19:01.922Z,27.70
2022-09-18T06:21:32.419Z,27.70
2022-09-18T06:24:03.848Z,27.70
2022-09-18T06:26:34.263Z,27.70
2022-09-18T06:29:05.534Z,27.70
2022-09-18T06:31:38.507Z,27.80
2022-09-18T06:34:08.728Z,27.80
2022-09-18T06:36:39.322Z,27.80
2022-09-18T06:39:10.108Z,27.80
2022-09-18T06:41:40.228Z,27.80
2022-09-18T06:44:10.378Z,27.90
2022-09-18T06:46:43.603Z,27.90
2022-09-18T06:49:16.571Z,28.00
2022-09-18T06:51:53.244Z,28.10
2022-09-18T06:54:24.641Z,28.10
2022-09-18T06:56:54.861Z,28.10
2022-09-18T06:59:25.068Z,28.10
2022-09-18T07:01:57.243Z,28.20
2022-09-18T07:04:28.339Z,28.20
2022-09-18T07:06:58.843Z,28.30
2022-09-18T07:09:28.970Z,28.40
2022-09-18T07:12:03.504Z,28.50
2022-09-18T07:14:33.549Z,28.50
2022-09-18T07:17:03.584Z,28.50
2022-09-18T07:19:33.901Z,28.60
2022-09-18T07:22:06.664Z,28.70
2022-09-18T07:24:38.389Z,28.80
2022-09-18T07:27:09.461Z,28.80
2022-09-18T07:29:39.710Z,28.90
2022-09-18T07:32:11.002Z,28.90
2022-09-18T07:34:43.630Z,28.90
2022-09-18T07:37:13.756Z,29.00
2022-09-18T07:39:45.660Z,29.00
2022-09-18T07:42:20.115Z,29.00
2022-09-18T07:44:50.190Z,29.10
2022-09-18T07:47:21.623Z,29.10
2022-09-18T07:49:55.093Z,29.10
2022-09-18T07:52:26.289Z,29.10
2022-09-18T07:54:56.531Z,29.10
2022-09-18T07:57:29.642Z,29.10
2022-09-18T08:00:05.441Z,29.10
2022-09-18T08:02:36.019Z,29.10
2022-09-18T08:05:07.381Z,29.10
2022-09-18T08:07:37.769Z,29.10
2022-09-18T08:10:09.172Z,29.10
2022-09-18T08:12:40.424Z,29.10
2022-09-18T08:15:13.214Z,29.10
2022-09-18T08:17:50.193Z,29.10
2022-09-18T08:20:22.124Z,29.20
2022-09-18T08:22:53.031Z,29.30
2022-09-18T08:25:23.211Z,29.30
2022-09-18T08:27:54.722Z,29.40
2022-09-18T08:30:24.682Z,29.40
2022-09-18T08:32:59.244Z,29.40
2022-09-18T08:35:29.632Z,29.30
2022-09-18T08:38:00.380Z,29.20
2022-09-18T08:41:09.745Z,29.20
2022-09-18T08:43:58.365Z,29.10
2022-09-18T08:46:53.408Z,29.10
2022-09-18T08:49:52.714Z,29.10
2022-09-18T08:52:31.482Z,29.10
2022-09-18T08:55:10.171Z,29.10
2022-09-18T08:57:58.173Z,29.10
2022-09-18T09:00:37.390Z,29.00
2022-09-18T09:03:40.543Z,29.00
2022-09-18T09:06:45.068Z,29.10
2022-09-18T09:09:44.298Z,29.10
2022-09-18T09:12:43.033Z,29.20
2022-09-18T09:15:38.071Z,29.20
2022-09-18T09:18:45.802Z,29.10
2022-09-18T09:21:30.563Z,29.20
2022-09-18T09:24:39.360Z,29.20
2022-09-18T09:27:34.052Z,29.30
2022-09-18T09:30:14.735Z,29.30
2022-09-18T09:33:09.182Z,29.40
2022-09-18T09:35:49.795Z,29.40
2022-09-18T09:38:43.086Z,29.40
2022-09-18T09:41:41.121Z,29.40
2022-09-18T09:44:40.003Z,29.50
2022-09-18T09:47:48.841Z,29.50
2022-09-18T09:50:39.326Z,29.40
2022-09-18T09:53:13.926Z,29.30
2022-09-18T09:56:25.622Z,29.30
2022-09-18T09:59:11.520Z,29.30
2022-09-18T10:02:20.445Z,29.30
2022-09-18T10:05:10.724Z,29.30
2022-09-18T10:07:57.502Z,29.20
2022-09-18T10:10:45.088Z,29.20
2022-09-18T10:13:39.623Z,29.20
2022-09-18T10:16:29.885Z,29.10
2022-09-18T10:19:01.610Z,29.10
2022-09-18T10:21:36.683Z,29.00
2022-09-18T10:24:46.285Z,29.00
2022-09-18T10:27:18.756Z,28.90
2022-09-18T10:29:48.608Z,28.90
2022-09-18T10:32:39.001Z,28.80
2022-09-18T10:35:38.123Z,28.80
2022-09-18T10:38:32.429Z,28.70
2022-09-18T10:41:43.163Z,28.70
2022-09-18T10:44:37.727Z,28.60
2022-09-18T10:47:23.238Z,28.50
2022-09-18T10:50:09.186Z,28.50
2022-09-18T10:52:50.634Z,28.50
2022-09-18T10:55:27.608Z,28.40
2022-09-18T10:58:27.960Z,28.30
2022-09-18T11:01:10.986Z,28.30
2022-09-18T11:04:10.429Z,28.20
2022-09-18T11:06:45.508Z,28.20
2022-09-18T11:09:22.079Z,28.10
2022-09-18T11:11:54.291Z,28.10
2022-09-18T11:14:32.316Z,28.10
2022-09-18T11:17:04.298Z,28.10
2022-09-18T11:19:40.767Z,28.00
2022-09-18T11:22:35.220Z,28.00
2022-09-18T11:25:28.587Z,27.90
2022-09-18T11:28:00.800Z,27.90
2022-09-18T11:30:33.468Z,27.90
2022-09-18T11:33:26.754Z,27.80
2022-09-18T11:36:08.356Z,27.80
2022-09-18T11:38:44.806Z,27.80
2022-09-18T11:41:16.529Z,27.70
2022-09-18T11:43:46.789Z,27.60
2022-09-18T11:46:46.768Z,27.50
2022-09-18T11:49:27.957Z,27.50
2022-09-18T11:52:07.017Z,27.40
2022-09-18T11:55:00.459Z,27.40
2022-09-18T11:57:53.447Z,27.30
2022-09-18T12:00:29.759Z,27.30
2022-09-18T12:03:20.786Z,27.20
2022-09-18T12:06:14.820Z,27.20
2022-09-18T12:09:06.372Z,27.20
2022-09-18T12:12:03.301Z,27.20
2022-09-18T12:14:50.270Z,27.10
2022-09-18T12:17:57.944Z,27.10
2022-09-18T12:20:41.874Z,27.10
2022-09-18T12:23:17.121Z,27.10
2022-09-18T12:26:21.898Z,27.10
2022-09-18T12:29:30.687Z,27.10
2022-09-18T12:32:32.540Z,27.10
2022-09-18T12:35:40.170Z,27.00
2022-09-18T12:38:48.691Z,27.00
2022-09-18T12:41:57.490Z,27.00
2022-09-18T12:44:55.237Z,26.90
2022-09-18T12:48:01.645Z,26.90
2022-09-18T12:51:03.627Z,26.90
2022-09-18T12:54:12.580Z,26.90
2022-09-18T12:57:21.284Z,26.80
2022-09-18T13:00:15.682Z,26.80
2022-09-18T13:03:26.825Z,26.80
2022-09-18T13:06:23.327Z,26.70
2022-09-18T13:09:00.370Z,26.70
2022-09-18T13:11:48.875Z,26.70
2022-09-18T13:14:45.152Z,26.70
2022-09-18T13:17:27.733Z,26.70
2022-09-18T13:20:34.345Z,26.60
2022-09-18T13:23:04.693Z,26.60
2022-09-18T13:25:42.501Z,26.50
2022-09-18T13:28:21.855Z,26.40
2022-09-18T13:31:30.788Z,26.40
2022-09-18T13:34:19.082Z,26.40
2022-09-18T13:36:49.670Z,26.30
2022-09-18T13:39:46.092Z,26.30
2022-09-18T13:42:40.953Z,26.30
2022-09-18T13:45:29.029Z,26.30
2022-09-18T13:48:21.637Z,26.20
2022-09-18T13:51:13.806Z,26.20
2022-09-18T13:53:45.806Z,26.20
2022-09-18T13:56:18.089Z,26.10
2022-09-18T13:58:58.723Z,26.10
2022-09-18T14:02:10.842Z,26.00
2022-09-18T14:05:19.829Z,26.00
2022-09-18T14:08:30.184Z,26.00
2022-09-18T14:11:17.657Z,26.00
2022-09-18T14:14:14.938Z,26.00
2022-09-18T14:16:47.726Z,25.90
2022-09-18T14:19:39.796Z,25.90
2022-09-18T14:22:26.639Z,25.90
2022-09-18T14:25:02.062Z,25.80
2022-09-18T14:27:58.843Z,25.80
2022-09-18T14:30:32.309Z,25.80
2022-09-18T14:33:31.677Z,25.80
2022-09-18T14:36:14.773Z,25.70
2022-09-18T14:38:45.259Z,25.70
2022-09-18T14:41:25.347Z,25.70
2022-09-18T14:44:08.340Z,25.70
2022-09-18T14:46:59.467Z,25.70
2022-09-18T14:49:53.589Z,25.60
2022-09-18T14:52:32.263Z,25.70
2022-09-18T14:55:02.494Z,25.70
2022-09-18T14:57:39.989Z,25.70
2022-09-18T15:00:21.192Z,25.70
2022-09-18T15:03:00.270Z,25.70
2022-09-18T15:05:35.061Z,25.70
2022-09-18T15:08:10.318Z,25.70
2022-09-18T15:10:43.008Z,25.60
2022-09-18T15:13:19.517Z,25.60
2022-09-18T15:15:59.409Z,25.60
2022-09-18T15:18:31.549Z,25.60
2022-09-18T15:21:06.271Z,25.60
2022-09-18T15:23:42.234Z,25.60
2022-09-18T15:26:15.725Z,25.60
2022-09-18T15:28:51.253Z,25.60
2022-09-18T15:31:23.893Z,25.70
2022-09-18T15:34:12.980Z,25.70
2022-09-18T15:36:43.400Z,25.70
2022-09-18T15:39:38.756Z,25.60
2022-09-18T15:42:35.322Z,25.60
2022-09-18T15:45:21.138Z,25.60
2022-09-18T15:47:51.967Z,25.60
2022-09-18T15:50:35.786Z,25.60
2022-09-18T15:53:24.483Z,25.50
2022-09-18T15:56:06.851Z,25.50
2022-09-18T15:58:46.881Z,25.40
2022-09-18T16:01:23.542Z,25.30
2022-09-18T16:04:09.263Z,25.30
2022-09-18T16:06:48.408Z,25.30
2022-09-18T16:09:42.056Z,25.20
2022-09-18T16:12:41.438Z,25.20
2022-09-18T16:15:25.137Z,25.20
2022-09-18T16:17:59.777Z,25.20
2022-09-18T16:21:07.794Z,25.20
2022-09-18T16:24:05.134Z,25.20
2022-09-18T16:26:41.375Z,25.20
2022-09-18T16:29:30.634Z,25.30
2022-09-18T16:32:02.053Z,25.30
2022-09-18T16:34:32.074Z,25.30
2022-09-18T16:37:05.856Z,25.20
2022-09-18T16:39:39.753Z,25.20
2022-09-18T16:42:24.383Z,25.20
2022-09-18T16:44:58.523Z,25.20
2022-09-18T16:47:28.912Z,25.20
2022-09-18T16:49:59.114Z,25.20
2022-09-18T16:52:32.394Z,25.20
2022-09-18T16:55:02.603Z,25.20
2022-09-18T16:57:33.943Z,25.20
2022-09-18T17:00:10.023Z,25.20
2022-09-18T17:02:46.572Z,25.20
2022-09-18T17:05:17.874Z,25.20
2022-09-18T17:07:49.823Z,25.20
2022-09-18T17:10:20.265Z,25.20
2022-09-18T17:12:51.642Z,25.20
2022-09-18T17:15:21.821Z,25.20
2022-09-18T17:17:53.385Z,25.10
2022-09-18T17:20:23.704Z,25.10
2022-09-18T17:22:53.953Z,25.10
2022-09-18T17:25:24.161Z,25.10
2022-09-18T17:27:54.574Z,25.10
2022-09-18T17:30:28.895Z,25.10
2022-09-18T17:32:59.263Z,25.10
2022-09-18T17:35:29.443Z,25.10
2022-09-18T17:37:59.372Z,25.00
2022-09-18T17:40:29.180Z,25.00
2022-09-18T17:42:58.919Z,25.10
2022-09-18T17:45:28.793Z,25.00
2022-09-18T17:47:58.564Z,25.00
2022-09-18T17:50:28.293Z,25.00
2022-09-18T17:52:58.114Z,25.00
2022-09-18T17:55:27.773Z,24.90
2022-09-18T17:57:58.264Z,24.90
2022-09-18T18:00:29.215Z,25.00
2022-09-18T18:02:58.894Z,25.00
2022-09-18T18:05:31.142Z,25.00
2022-09-18T18:08:01.247Z,25.00
2022-09-18T18:10:31.675Z,25.00
2022-09-18T18:13:01.844Z,25.00
2022-09-18T18:15:32.556Z,25.00
2022-09-18T18:18:02.614Z,25.00
2022-09-18T18:20:32.797Z,24.90
2022-09-18T18:23:02.842Z,25.00
2022-09-18T18:25:33.006Z,24.90
2022-09-18T18:28:03.523Z,25.00
2022-09-18T18:30:33.837Z,24.90
2022-09-18T18:33:04.996Z,24.90
2022-09-18T18:35:35.624Z,24.90
2022-09-18T18:38:05.577Z,24.90
2022-09-18T18:40:35.789Z,24.90
2022-09-18T18:43:07.697Z,24.90
2022-09-18T18:45:37.511Z,24.90
2022-09-18T18:48:09.831Z,25.00
2022-09-18T18:50:44.327Z,25.00
2022-09-18T18:53:16.516Z,25.00
2022-09-18T18:55:48.604Z,25.00
2022-09-18T18:58:18.555Z,25.00
2022-09-18T19:00:48.390Z,24.90
2022-09-18T19:03:18.302Z,24.90
2022-09-18T19:05:50.943Z,24.90
2022-09-18T19:08:20.562Z,24.90
2022-09-18T19:11:03.864Z,24.90
2022-09-18T19:13:35.854Z,24.90
2022-09-18T19:16:06.435Z,24.90
2022-09-18T19:18:36.404Z,24.90
2022-09-18T19:21:06.315Z,24.90
2022-09-18T19:23:37.266Z,24.90
2022-09-18T19:26:07.062Z,24.90
2022-09-18T19:28:36.736Z,24.90
2022-09-18T19:31:07.187Z,24.90
2022-09-18T19:33:36.921Z,25.00
2022-09-18T19:36:08.794Z,24.90
2022-09-18T19:38:38.854Z,24.90
2022-09-18T19:41:40.592Z,24.90
2022-09-18T19:44:39.946Z,25.00
2022-09-18T19:47:22.495Z,25.00
2022-09-18T19:49:53.183Z,25.00
2022-09-18T19:52:26.784Z,25.00
2022-09-18T19:54:57.762Z,25.00
2022-09-18T19:57:30.122Z,25.00
2022-09-18T20:00:01.311Z,25.00
2022-09-18T20:02:31.272Z,25.00
2022-09-18T20:05:01.554Z,25.00
2022-09-18T20:07:32.804Z,25.00
2022-09-18T20:10:02.896Z,25.00
2022-09-18T20:12:35.563Z,24.90
2022-09-18T20:15:06.725Z,24.90
2022-09-18T20:17:36.798Z,24.90
2022-09-18T20:20:16.317Z,24.80
2022-09-18T20:22:46.623Z,24.90
2022-09-18T20:25:16.923Z,24.80
2022-09-18T20:27:46.864Z,24.90
2022-09-18T20:30:17.194Z,24.80
2022-09-18T20:32:47.266Z,24.90
2022-09-18T20:35:17.333Z,24.90
2022-09-18T20:37:46.957Z,24.90
2022-09-18T20:40:17.211Z,24.90
2022-09-18T20:42:46.998Z,24.90
2022-09-18T20:45:16.617Z,24.90
2022-09-18T20:47:46.210Z,24.90
2022-09-18T20:50:16.515Z,24.90
2022-09-18T20:52:46.796Z,24.80
2022-09-18T20:55:19.055Z,24.80
2022-09-18T20:57:49.335Z,24.80
2022-09-18T21:00:19.239Z,24.80
2022-09-18T21:02:53.613Z,24.80
2022-09-18T21:05:24.121Z,24.80
2022-09-18T21:07:59.037Z,24.80
2022-09-18T21:10:28.683Z,24.70
2022-09-18T21:12:59.521Z,24.70
2022-09-18T21:15:30.416Z,24.70
2022-09-18T21:18:00.127Z,24.70
2022-09-18T21:20:29.626Z,24.60
2022-09-18T21:23:18.764Z,24.60
2022-09-18T21:25:48.297Z,24.60
2022-09-18T21:28:17.867Z,24.60
2022-09-18T21:30:47.528Z,24.60
2022-09-18T21:33:17.507Z,24.60
2022-09-18T21:35:56.486Z,24.60
2022-09-18T21:38:26.489Z,24.60
2022-09-18T21:40:56.836Z,24.70
2022-09-18T21:43:26.776Z,24.70
2022-09-18T21:45:57.098Z,24.70
2022-09-18T21:48:27.079Z,24.70
2022-09-18T21:50:57.040Z,24.70
2022-09-18T21:53:27.020Z,24.70
2022-09-18T21:56:05.381Z,24.70
2022-09-18T21:58:40.782Z,24.70
2022-09-18T22:01:20.448Z,24.70
2022-09-18T22:03:59.319Z,24.70
2022-09-18T22:06:37.561Z,24.70
2022-09-18T22:09:15.429Z,24.70
2022-09-18T22:11:46.628Z,24.70
2022-09-18T22:14:33.008Z,24.70
2022-09-18T22:17:05.260Z,24.70
2022-09-18T22:19:40.564Z,24.60
2022-09-18T22:22:12.028Z,24.60
2022-09-18T22:24:41.992Z,24.60
2022-09-18T22:27:14.599Z,24.70
2022-09-18T22:29:45.049Z,24.60
2022-09-18T22:32:15.049Z,24.70
2022-09-18T22:34:45.008Z,24.60
2022-09-18T22:37:15.039Z,24.70
2022-09-18T22:39:44.851Z,24.60
2022-09-18T22:42:14.722Z,24.70
2022-09-18T22:44:44.529Z,24.60
2022-09-18T22:47:14.294Z,24.60
2022-09-18T22:49:43.818Z,24.60
2022-09-18T22:52:13.450Z,24.60
2022-09-18T22:54:43.041Z,24.60
2022-09-18T22:57:12.828Z,24.60
2022-09-18T22:59:42.354Z,24.50
2022-09-18T23:02:12.078Z,24.50
2022-09-18T23:04:42.605Z,24.60
2022-09-18T23:07:12.523Z,24.60
2022-09-18T23:09:43.391Z,24.50
2022-09-18T23:12:13.143Z,24.50
2022-09-18T23:14:42.743Z,24.50
2022-09-18T23:17:12.381Z,24.50
2022-09-18T23:19:42.819Z,24.40
2022-09-18T23:22:13.883Z,24.40
2022-09-18T23:24:43.739Z,24.40
2022-09-18T23:27:13.533Z,24.40
2022-09-18T23:29:43.220Z,24.40
2022-09-18T23:32:13.026Z,24.40
2022-09-18T23:34:42.626Z,24.50
2022-09-18T23:37:12.304Z,24.50
2022-09-18T23:39:41.880Z,24.50
2022-09-18T23:42:12.797Z,24.50
2022-09-18T23:44:42.729Z,24.50
2022-09-18T23:47:12.681Z,24.60
2022-09-18T23:49:42.661Z,24.50
2022-09-18T23:52:12.580Z,24.60
2022-09-18T23:54:42.500Z,24.60
2022-09-18T23:57:12.607Z,24.60
2022-09-18T23:59:42.539Z,24.70
